createdAt,value
2019-03-23T00:00:41.324Z,17.60
2019-03-23T00:01:41.431Z,21.40
2019-03-23T00:02:41.264Z,18.10
2019-03-23T00:03:41.311Z,20.30
2019-03-23T00:04:41.242Z,18.30
2019-03-23T00:05:41.298Z,20.70
2019-03-23T00:06:41.248Z,18.80
2019-03-23T00:07:41.316Z,19.80
2019-03-23T00:08:41.206Z,17.70
2019-03-23T00:10:42.197Z,18.90
2019-03-23T00:11:41.386Z,19.90
2019-03-23T00:12:41.148Z,18.20
2019-03-23T00:13:41.359Z,18.40
2019-03-23T00:14:41.123Z,18.00
2019-03-23T00:15:41.575Z,17.00
2019-03-23T00:16:41.179Z,19.30
2019-03-23T00:17:41.555Z,17.00
2019-03-23T00:18:41.099Z,19.40
2019-03-23T00:19:41.603Z,17.60
2019-03-23T00:20:41.065Z,20.90
2019-03-23T00:21:41.556Z,21.60
2019-03-23T00:22:41.066Z,17.10
2019-03-23T00:23:41.543Z,16.30
2019-03-23T00:24:41.050Z,17.00
2019-03-23T00:25:41.553Z,17.50
2019-03-23T00:26:40.988Z,17.10
2019-03-23T00:27:41.591Z,18.70
2019-03-23T00:28:41.001Z,17.10
2019-03-23T00:29:41.467Z,16.30
2019-03-23T00:30:40.954Z,18.30
2019-03-23T00:31:41.599Z,15.10
2019-03-23T00:32:40.957Z,15.80
2019-03-23T00:33:41.610Z,14.80
2019-03-23T00:34:40.926Z,16.40
2019-03-23T00:35:41.543Z,17.20
2019-03-23T00:36:41.910Z,16.40
2019-03-23T00:37:41.593Z,14.20
2019-03-23T00:38:40.904Z,14.80
2019-03-23T00:39:41.636Z,16.00
2019-03-23T00:40:40.853Z,17.20
2019-03-23T00:41:41.649Z,18.10
2019-03-23T00:42:40.838Z,18.40
2019-03-23T00:44:42.708Z,18.20
2019-03-23T00:46:41.895Z,20.80
2019-03-23T00:47:42.032Z,18.30
2019-03-23T00:48:40.739Z,19.50
2019-03-23T00:50:41.883Z,19.40
2019-03-23T00:52:41.879Z,18.60
2019-03-23T00:53:42.433Z,18.40
2019-03-23T00:54:40.674Z,19.70
2019-03-23T00:55:42.463Z,19.50
2019-03-23T00:56:40.675Z,21.70
2019-03-23T00:57:42.507Z,21.40
2019-03-23T00:58:40.642Z,21.20
2019-03-23T00:59:42.596Z,19.70
2019-03-23T01:00:40.611Z,22.80
2019-03-23T01:01:42.732Z,19.20
2019-03-23T01:02:41.897Z,19.60
2019-03-23T01:03:42.760Z,25.20
2019-03-23T01:04:40.580Z,21.60
2019-03-23T01:05:42.841Z,20.50
2019-03-23T01:06:40.541Z,25.70
2019-03-23T01:07:42.977Z,22.00
2019-03-23T01:08:40.549Z,24.60
2019-03-23T01:09:43.085Z,26.70
2019-03-23T01:10:40.486Z,30.40
2019-03-23T01:11:43.197Z,30.00
2019-03-23T01:12:40.469Z,30.10
2019-03-23T01:13:43.346Z,32.30
2019-03-23T01:14:40.449Z,31.40
2019-03-23T01:16:41.596Z,31.50
2019-03-23T01:18:41.566Z,32.10
2019-03-23T01:19:43.738Z,32.90
2019-03-23T01:20:49.342Z,37.40
2019-03-23T01:21:41.377Z,37.20
2019-03-23T01:23:41.523Z,35.00
2019-03-23T01:25:41.469Z,39.00
2019-03-23T01:27:41.452Z,45.50
2019-03-23T01:28:43.953Z,43.40
2019-03-23T01:29:40.317Z,45.50
2019-03-23T01:31:41.424Z,51.70
2019-03-23T01:33:41.362Z,50.00
2019-03-23T01:34:45.243Z,54.80
2019-03-23T01:35:40.205Z,54.90
2019-03-23T01:37:40.208Z,50.80
2019-03-23T01:38:42.256Z,53.10
2019-03-23T01:39:40.218Z,51.90
2019-03-23T01:40:42.380Z,56.70
2019-03-23T01:41:40.144Z,55.10
2019-03-23T01:42:40.233Z,54.50
2019-03-23T01:43:40.122Z,54.40
2019-03-23T01:44:40.176Z,58.70
2019-03-23T01:45:40.132Z,60.00
2019-03-23T01:46:40.157Z,61.20
2019-03-23T01:47:40.082Z,63.50
2019-03-23T01:48:40.170Z,64.20
2019-03-23T01:49:40.077Z,62.20
2019-03-23T01:50:40.112Z,75.20
2019-03-23T01:51:40.033Z,78.80
2019-03-23T01:52:40.105Z,77.40
2019-03-23T01:53:40.027Z,80.50
2019-03-23T01:54:40.114Z,86.60
2019-03-23T01:55:40.020Z,95.80
2019-03-23T01:56:40.028Z,99.90
2019-03-23T01:57:39.983Z,98.80
2019-03-23T01:58:40.041Z,108.70
2019-03-23T01:59:39.979Z,115.90
2019-03-23T02:00:40.090Z,116.70
2019-03-23T02:01:39.924Z,113.90
2019-03-23T02:02:39.971Z,120.90
2019-03-23T02:03:39.902Z,119.50
2019-03-23T02:04:39.977Z,127.30
2019-03-23T02:05:39.906Z,129.40
2019-03-23T02:06:40.004Z,131.60
2019-03-23T02:07:39.855Z,130.20
2019-03-23T02:08:39.907Z,139.30
2019-03-23T02:09:39.833Z,132.20
2019-03-23T02:10:41.864Z,146.40
2019-03-23T02:11:39.828Z,141.00
2019-03-23T02:12:39.845Z,140.40
2019-03-23T02:13:39.797Z,148.70
2019-03-23T02:14:39.840Z,141.90
2019-03-23T02:15:39.803Z,151.20
2019-03-23T02:16:39.887Z,148.60
2019-03-23T02:17:39.770Z,142.90
2019-03-23T02:18:39.772Z,151.30
2019-03-23T02:19:39.743Z,149.60
2019-03-23T02:20:39.815Z,148.40
2019-03-23T02:21:39.701Z,148.00
2019-03-23T02:22:39.815Z,148.70
2019-03-23T02:23:39.679Z,147.60
2019-03-23T02:24:39.712Z,145.10
2019-03-23T02:25:39.683Z,147.60
2019-03-23T02:26:39.750Z,146.70
2019-03-23T02:27:39.635Z,142.20
2019-03-23T02:28:39.737Z,140.40
2019-03-23T02:29:39.611Z,143.70
2019-03-23T02:30:39.653Z,140.90
2019-03-23T02:31:39.618Z,145.50
2019-03-23T02:33:40.685Z,149.00
2019-03-23T02:34:39.669Z,163.40
2019-03-23T02:35:39.539Z,165.30
2019-03-23T02:36:40.638Z,165.70
2019-03-23T02:37:39.519Z,174.70
2019-03-23T02:38:39.607Z,178.20
2019-03-23T02:39:39.513Z,185.20
2019-03-23T02:40:39.518Z,188.60
2019-03-23T02:41:39.502Z,186.10
2019-03-23T02:42:39.526Z,185.80
2019-03-23T02:43:39.457Z,179.10
2019-03-23T02:45:40.572Z,187.30
2019-03-23T02:46:39.451Z,193.10
2019-03-23T02:47:39.424Z,179.40
2019-03-23T02:48:39.482Z,187.70
2019-03-23T02:49:39.377Z,188.60
2019-03-23T02:50:39.479Z,186.00
2019-03-23T02:51:39.875Z,194.50
2019-03-23T02:52:39.444Z,191.90
2019-03-23T02:53:39.350Z,181.10
2019-03-23T02:54:39.408Z,195.30
2019-03-23T02:55:39.320Z,188.20
2019-03-23T02:56:39.426Z,197.50
2019-03-23T02:57:39.346Z,189.60
2019-03-23T02:58:39.344Z,192.90
2019-03-23T02:59:39.272Z,194.50
2019-03-23T03:00:39.356Z,193.60
2019-03-23T03:01:39.263Z,194.00
2019-03-23T03:02:39.389Z,189.70
2019-03-23T03:03:39.230Z,200.00
2019-03-23T03:04:39.276Z,205.70
2019-03-23T03:05:39.214Z,211.80
2019-03-23T03:06:39.311Z,197.40
2019-03-23T03:07:42.493Z,205.70
2019-03-23T03:08:39.327Z,192.20
2019-03-23T03:09:39.161Z,200.00
2019-03-23T03:10:39.211Z,205.00
2019-03-23T03:11:39.162Z,199.70
2019-03-23T03:12:39.256Z,199.30
2019-03-23T03:13:39.138Z,200.70
2019-03-23T03:14:39.231Z,194.10
2019-03-23T03:15:39.109Z,201.70
2019-03-23T03:16:39.158Z,192.40
2019-03-23T03:17:39.148Z,201.80
2019-03-23T03:18:39.182Z,196.30
2019-03-23T03:19:39.087Z,204.40
2019-03-23T03:20:39.085Z,205.20
2019-03-23T03:21:39.041Z,202.40
2019-03-23T03:22:39.231Z,202.20
2019-03-23T03:23:39.096Z,201.00
2019-03-23T03:24:39.105Z,206.30
2019-03-23T03:25:38.992Z,209.80
2019-03-23T03:26:39.007Z,214.90
2019-03-23T03:27:38.976Z,213.80
2019-03-23T03:28:39.066Z,214.20
2019-03-23T03:29:38.997Z,209.40
2019-03-23T03:30:39.061Z,203.90
2019-03-23T03:31:38.929Z,203.20
2019-03-23T03:32:38.955Z,198.80
2019-03-23T03:33:38.940Z,212.40
2019-03-23T03:34:38.974Z,214.20
2019-03-23T03:35:38.890Z,207.10
2019-03-23T03:36:38.999Z,211.00
2019-03-23T03:37:38.858Z,209.70
2019-03-23T03:38:38.924Z,212.10
2019-03-23T03:39:38.838Z,218.90
2019-03-23T03:40:38.903Z,229.50
2019-03-23T03:41:38.831Z,208.70
2019-03-23T03:42:38.917Z,221.20
2019-03-23T03:43:38.846Z,226.40
2019-03-23T03:44:38.864Z,220.60
2019-03-23T03:45:38.774Z,225.90
2019-03-23T03:46:38.852Z,249.60
2019-03-23T03:47:41.272Z,252.00
2019-03-23T03:48:38.856Z,237.50
2019-03-23T03:49:38.755Z,248.30
2019-03-23T03:50:38.797Z,254.10
2019-03-23T03:51:38.710Z,267.20
2019-03-23T03:52:38.805Z,264.00
2019-03-23T03:53:38.693Z,255.90
2019-03-23T03:54:38.725Z,266.50
2019-03-23T03:55:38.676Z,266.50
2019-03-23T03:56:38.704Z,268.40
2019-03-23T03:57:38.654Z,258.30
2019-03-23T03:58:38.724Z,289.60
2019-03-23T03:59:38.662Z,288.90
2019-03-23T04:00:38.635Z,271.80
2019-03-23T04:01:38.595Z,273.50
2019-03-23T04:02:38.661Z,259.60
2019-03-23T04:03:38.576Z,267.10
2019-03-23T04:04:38.702Z,288.00
2019-03-23T04:05:38.579Z,276.00
2019-03-23T04:06:38.582Z,270.90
2019-03-23T04:07:38.542Z,267.50
2019-03-23T04:08:38.586Z,259.00
2019-03-23T04:09:40.440Z,270.30
2019-03-23T04:10:38.641Z,272.60
2019-03-23T04:11:38.485Z,268.00
2019-03-23T04:12:38.515Z,277.10
2019-03-23T04:13:38.466Z,262.70
2019-03-23T04:14:38.570Z,278.10
2019-03-23T04:15:38.477Z,271.20
2019-03-23T04:16:38.543Z,278.30
2019-03-23T04:17:38.440Z,270.80
2019-03-23T04:18:38.448Z,265.00
2019-03-23T04:19:38.401Z,275.90
2019-03-23T04:20:38.500Z,268.20
2019-03-23T04:21:38.372Z,282.20
2019-03-23T04:22:38.488Z,278.20
2019-03-23T04:23:38.382Z,281.10
2019-03-23T04:24:38.398Z,269.40
2019-03-23T04:25:38.392Z,275.70
2019-03-23T04:26:39.470Z,293.10
2019-03-23T04:27:38.324Z,291.10
2019-03-23T04:28:38.448Z,282.50
2019-03-23T04:29:38.284Z,283.00
2019-03-23T04:30:38.456Z,279.30
2019-03-23T04:31:38.266Z,293.10
2019-03-23T04:32:38.352Z,285.80
2019-03-23T04:33:38.266Z,289.60
2019-03-23T04:34:38.257Z,290.20
2019-03-23T04:35:38.271Z,291.50
2019-03-23T04:36:38.270Z,279.90
2019-03-23T04:37:38.218Z,281.70
2019-03-23T04:38:38.292Z,298.20
2019-03-23T04:39:38.178Z,304.70
2019-03-23T04:40:38.341Z,288.40
2019-03-23T04:41:38.155Z,298.40
2019-03-23T04:42:38.211Z,290.40
2019-03-23T04:43:38.140Z,304.50
2019-03-23T04:44:38.247Z,311.30
2019-03-23T04:45:38.148Z,295.60
2019-03-23T04:46:38.132Z,313.60
2019-03-23T04:47:38.089Z,295.10
2019-03-23T04:48:38.154Z,288.30
2019-03-23T04:49:38.073Z,296.50
2019-03-23T04:50:38.198Z,294.20
2019-03-23T04:51:38.046Z,292.90
2019-03-23T04:52:38.096Z,291.10
2019-03-23T04:53:38.046Z,292.80
2019-03-23T04:54:38.994Z,289.10
2019-03-23T04:55:38.026Z,292.70
2019-03-23T04:56:38.099Z,287.20
2019-03-23T04:57:38.003Z,281.00
2019-03-23T04:58:38.027Z,278.90
2019-03-23T04:59:37.967Z,287.00
2019-03-23T05:00:38.063Z,288.40
2019-03-23T05:01:37.934Z,277.40
2019-03-23T05:02:38.051Z,292.10
2019-03-23T05:03:37.917Z,296.40
2019-03-23T05:04:37.949Z,281.90
2019-03-23T05:05:37.984Z,281.90
2019-03-23T05:06:37.961Z,282.40
2019-03-23T05:07:37.874Z,278.70
2019-03-23T05:08:37.982Z,273.30
2019-03-23T05:09:37.858Z,254.00
2019-03-23T05:10:37.922Z,244.40
2019-03-23T05:11:37.864Z,244.70
2019-03-23T05:12:37.904Z,256.20
2019-03-23T05:13:37.823Z,252.30
2019-03-23T05:14:37.922Z,252.90
2019-03-23T05:15:37.791Z,252.20
2019-03-23T05:16:37.872Z,256.90
2019-03-23T05:17:37.772Z,257.00
2019-03-23T05:18:37.863Z,258.50
2019-03-23T05:19:37.752Z,260.00
2019-03-23T05:20:37.754Z,267.60
2019-03-23T05:21:37.754Z,256.10
2019-03-23T05:22:37.772Z,266.80
2019-03-23T05:23:37.716Z,268.40
2019-03-23T05:24:37.805Z,258.80
2019-03-23T05:25:37.682Z,271.60
2019-03-23T05:26:37.846Z,270.40
2019-03-23T05:27:37.656Z,251.80
2019-03-23T05:28:37.736Z,247.90
2019-03-23T05:29:37.636Z,239.30
2019-03-23T05:30:37.720Z,271.80
2019-03-23T05:31:37.624Z,244.90
2019-03-23T05:32:37.682Z,260.90
2019-03-23T05:33:37.588Z,254.90
2019-03-23T05:34:37.650Z,266.70
2019-03-23T05:35:37.570Z,258.30
2019-03-23T05:36:37.709Z,258.40
2019-03-23T05:37:37.566Z,260.70
2019-03-23T05:38:44.259Z,273.90
2019-03-23T05:39:38.525Z,285.20
2019-03-23T05:40:37.586Z,277.10
2019-03-23T05:41:37.505Z,268.80
2019-03-23T05:42:37.703Z,267.90
2019-03-23T05:43:37.483Z,264.30
2019-03-23T05:44:37.552Z,272.80
2019-03-23T05:45:37.456Z,253.10
2019-03-23T05:46:37.524Z,262.90
2019-03-23T05:47:37.471Z,275.40
2019-03-23T05:48:37.541Z,258.30
2019-03-23T05:49:37.419Z,266.10
2019-03-23T05:50:37.458Z,255.60
2019-03-23T05:51:37.406Z,244.40
2019-03-23T05:52:37.508Z,249.90
2019-03-23T05:53:37.399Z,258.20
2019-03-23T05:54:37.481Z,248.80
2019-03-23T05:55:37.366Z,254.40
2019-03-23T05:56:37.390Z,257.30
2019-03-23T05:57:37.380Z,251.80
2019-03-23T05:58:37.437Z,255.80
2019-03-23T05:59:37.320Z,267.60
2019-03-23T06:00:37.311Z,251.00
2019-03-23T06:01:37.276Z,255.20
2019-03-23T06:02:37.381Z,263.00
2019-03-23T06:03:37.314Z,270.70
2019-03-23T06:04:37.345Z,261.70
2019-03-23T06:05:37.263Z,255.60
2019-03-23T06:06:37.256Z,250.60
2019-03-23T06:07:37.224Z,270.30
2019-03-23T06:08:37.312Z,251.30
2019-03-23T06:09:37.204Z,254.20
2019-03-23T06:10:37.331Z,247.80
2019-03-23T06:11:37.178Z,249.80
2019-03-23T06:12:37.201Z,242.80
2019-03-23T06:13:37.187Z,258.70
2019-03-23T06:14:37.218Z,258.50
2019-03-23T06:15:37.153Z,255.40
2019-03-23T06:16:37.224Z,256.50
2019-03-23T06:17:37.140Z,253.50
2019-03-23T06:18:37.169Z,260.80
2019-03-23T06:19:37.088Z,260.70
2019-03-23T06:20:37.159Z,258.20
2019-03-23T06:21:37.068Z,269.80
2019-03-23T06:22:37.185Z,257.80
2019-03-23T06:23:37.086Z,253.10
2019-03-23T06:24:37.120Z,254.90
2019-03-23T06:25:37.017Z,261.20
2019-03-23T06:26:37.097Z,273.50
2019-03-23T06:27:37.035Z,260.30
2019-03-23T06:28:37.106Z,257.00
2019-03-23T06:29:36.975Z,262.70
2019-03-23T06:30:37.067Z,263.20
2019-03-23T06:31:36.958Z,250.80
2019-03-23T06:32:37.054Z,247.90
2019-03-23T06:33:36.932Z,250.30
2019-03-23T06:34:37.092Z,252.40
2019-03-23T06:35:36.935Z,253.50
2019-03-23T06:36:36.978Z,241.40
2019-03-23T06:37:36.903Z,256.40
2019-03-23T06:38:36.977Z,255.80
2019-03-23T06:39:36.919Z,261.30
2019-03-23T06:40:36.987Z,254.30
2019-03-23T06:41:36.876Z,255.50
2019-03-23T06:42:36.897Z,259.60
2019-03-23T06:43:36.845Z,266.50
2019-03-23T06:44:36.962Z,259.70
2019-03-23T06:45:36.849Z,266.80
2019-03-23T06:46:36.831Z,258.40
2019-03-23T06:47:36.784Z,248.70
2019-03-23T06:48:36.834Z,252.50
2019-03-23T06:49:36.796Z,261.70
2019-03-23T06:50:36.883Z,230.60
2019-03-23T06:51:36.745Z,246.80
2019-03-23T06:52:36.772Z,253.00
2019-03-23T06:53:36.725Z,245.70
2019-03-23T06:54:37.117Z,253.30
2019-03-23T06:55:36.733Z,248.70
2019-03-23T06:56:36.793Z,249.20
2019-03-23T06:57:36.685Z,255.00
2019-03-23T06:58:38.599Z,248.10
2019-03-23T06:59:36.689Z,255.50
2019-03-23T07:00:36.740Z,252.50
2019-03-23T07:01:36.626Z,250.70
2019-03-23T07:02:36.741Z,254.10
2019-03-23T07:03:36.623Z,258.90
2019-03-23T07:04:36.685Z,248.60
2019-03-23T07:05:36.626Z,247.60
2019-03-23T07:07:37.691Z,245.00
2019-03-23T07:08:36.745Z,244.10
2019-03-23T07:09:36.560Z,238.20
2019-03-23T07:10:36.592Z,231.80
2019-03-23T07:11:36.553Z,258.60
2019-03-23T07:12:36.588Z,244.60
2019-03-23T07:13:36.508Z,240.00
2019-03-23T07:14:36.618Z,245.60
2019-03-23T07:15:36.503Z,240.20
2019-03-23T07:16:36.547Z,241.00
2019-03-23T07:17:36.472Z,245.30
2019-03-23T07:18:36.529Z,221.50
2019-03-23T07:19:36.439Z,232.80
2019-03-23T07:20:36.587Z,231.50
2019-03-23T07:21:36.439Z,230.50
2019-03-23T07:22:36.466Z,233.70
2019-03-23T07:23:36.418Z,243.10
2019-03-23T07:24:36.495Z,234.10
2019-03-23T07:25:36.370Z,233.20
2019-03-23T07:26:36.420Z,231.50
2019-03-23T07:27:36.348Z,218.20
2019-03-23T07:28:36.456Z,221.20
2019-03-23T07:29:36.334Z,233.20
2019-03-23T07:30:36.416Z,220.30
2019-03-23T07:31:36.342Z,205.70
2019-03-23T07:32:36.436Z,210.60
2019-03-23T07:33:36.282Z,202.00
2019-03-23T07:34:36.334Z,200.80
2019-03-23T07:35:36.263Z,207.10
2019-03-23T07:36:36.393Z,189.10
2019-03-23T07:37:36.268Z,193.30
2019-03-23T07:38:36.271Z,195.10
2019-03-23T07:39:36.232Z,200.70
2019-03-23T07:40:36.274Z,196.20
2019-03-23T07:41:36.234Z,204.70
2019-03-23T07:42:36.301Z,188.00
2019-03-23T07:43:36.192Z,203.30
2019-03-23T07:44:36.214Z,191.40
2019-03-23T07:45:36.152Z,192.40
2019-03-23T07:46:36.247Z,178.70
2019-03-23T07:47:36.138Z,183.20
2019-03-23T07:48:36.230Z,179.80
2019-03-23T07:49:36.188Z,178.70
2019-03-23T07:50:36.147Z,176.00
2019-03-23T07:51:36.145Z,182.80
2019-03-23T07:52:36.201Z,188.90
2019-03-23T07:53:36.102Z,184.90
2019-03-23T07:54:36.170Z,186.90
2019-03-23T07:55:36.043Z,186.10
2019-03-23T07:56:36.080Z,181.60
2019-03-23T07:57:36.043Z,180.40
2019-03-23T07:58:36.084Z,195.10
2019-03-23T07:59:36.016Z,185.10
2019-03-23T08:00:36.108Z,179.40
2019-03-23T08:01:35.976Z,190.30
2019-03-23T08:02:36.053Z,191.50
2019-03-23T08:03:35.984Z,171.30
2019-03-23T08:04:36.037Z,178.60
2019-03-23T08:05:35.937Z,186.30
2019-03-23T08:06:35.939Z,188.10
2019-03-23T08:07:35.933Z,181.90
2019-03-23T08:08:35.962Z,181.80
2019-03-23T08:09:37.858Z,183.30
2019-03-23T08:10:35.971Z,172.10
2019-03-23T08:11:35.890Z,171.30
2019-03-23T08:12:35.926Z,168.80
2019-03-23T08:13:35.854Z,154.90
2019-03-23T08:14:36.235Z,168.00
2019-03-23T08:15:35.818Z,168.20
2019-03-23T08:16:35.931Z,169.90
2019-03-23T08:17:35.811Z,159.60
2019-03-23T08:18:35.872Z,163.10
2019-03-23T08:19:35.786Z,160.10
2019-03-23T08:20:35.847Z,157.60
2019-03-23T08:21:35.785Z,162.50
2019-03-23T08:22:35.849Z,163.00
2019-03-23T08:23:35.766Z,168.70
2019-03-23T08:24:35.760Z,160.00
2019-03-23T08:25:35.703Z,163.40
2019-03-23T08:26:35.797Z,155.00
2019-03-23T08:27:35.683Z,153.90
2019-03-23T08:28:35.831Z,157.50
2019-03-23T08:29:35.660Z,145.60
2019-03-23T08:30:35.743Z,146.80
2019-03-23T08:31:35.646Z,151.20
2019-03-23T08:32:35.717Z,146.60
2019-03-23T08:33:35.648Z,151.60
2019-03-23T08:34:35.728Z,155.60
2019-03-23T08:35:35.599Z,149.00
2019-03-23T08:36:35.645Z,151.40
2019-03-23T08:37:35.584Z,150.60
2019-03-23T08:38:35.682Z,146.10
2019-03-23T08:39:35.578Z,145.60
2019-03-23T08:40:35.930Z,142.50
2019-03-23T08:41:35.539Z,147.20
2019-03-23T08:42:35.592Z,142.70
2019-03-23T08:43:35.546Z,134.70
2019-03-23T08:44:35.610Z,142.00
2019-03-23T08:45:35.482Z,155.20
2019-03-23T08:46:35.547Z,139.90
2019-03-23T08:47:35.470Z,144.00
2019-03-23T08:48:35.551Z,141.70
2019-03-23T08:49:35.490Z,142.10
2019-03-23T08:51:36.566Z,146.00
2019-03-23T08:52:35.445Z,140.00
2019-03-23T08:53:35.404Z,137.20
2019-03-23T08:54:35.494Z,138.30
2019-03-23T08:55:35.386Z,147.00
2019-03-23T08:56:37.410Z,144.00
2019-03-23T08:57:35.366Z,141.20
2019-03-23T08:59:36.517Z,138.90
2019-03-23T09:00:35.397Z,135.10
2019-03-23T09:01:35.307Z,139.90
2019-03-23T09:02:35.409Z,135.80
2019-03-23T09:03:35.296Z,140.40
2019-03-23T09:04:35.358Z,136.00
2019-03-23T09:05:35.255Z,132.70
2019-03-23T09:06:35.341Z,135.10
2019-03-23T09:07:35.239Z,129.70
2019-03-23T09:08:35.362Z,129.80
2019-03-23T09:10:36.207Z,128.20
2019-03-23T09:11:35.267Z,129.90
2019-03-23T09:12:35.186Z,127.20
2019-03-23T09:13:40.640Z,126.80
2019-03-23T09:14:36.201Z,119.60
2019-03-23T09:15:35.229Z,125.10
2019-03-23T09:16:35.193Z,126.70
2019-03-23T09:17:35.211Z,125.00
2019-03-23T09:18:35.116Z,123.10
2019-03-23T09:19:35.229Z,128.70
2019-03-23T09:20:35.132Z,121.70
2019-03-23T09:21:35.128Z,122.20
2019-03-23T09:22:35.081Z,121.30
2019-03-23T09:23:35.147Z,123.40
2019-03-23T09:24:35.054Z,116.90
2019-03-23T09:25:35.193Z,118.20
2019-03-23T09:26:35.052Z,117.10
2019-03-23T09:27:35.074Z,123.90
2019-03-23T09:28:35.036Z,126.60
2019-03-23T09:29:35.097Z,111.30
2019-03-23T09:30:35.025Z,117.20
2019-03-23T09:31:35.066Z,111.40
2019-03-23T09:32:34.968Z,111.50
2019-03-23T09:33:35.014Z,113.00
2019-03-23T09:34:34.947Z,114.90
2019-03-23T09:35:35.064Z,111.10
2019-03-23T09:36:34.985Z,109.60
2019-03-23T09:37:38.215Z,109.00
2019-03-23T09:38:34.929Z,108.80
2019-03-23T09:39:34.962Z,114.00
2019-03-23T09:40:34.880Z,111.80
2019-03-23T09:41:35.000Z,113.40
2019-03-23T09:42:34.882Z,109.00
2019-03-23T09:43:34.902Z,117.10
2019-03-23T09:44:34.836Z,120.60
2019-03-23T09:45:34.895Z,121.50
2019-03-23T09:46:34.842Z,113.00
2019-03-23T09:48:35.909Z,115.10
2019-03-23T09:49:34.827Z,115.20
2019-03-23T09:50:34.765Z,120.20
2019-03-23T09:51:34.857Z,119.30
2019-03-23T09:52:34.759Z,118.40
2019-03-23T09:53:34.846Z,114.00
2019-03-23T09:54:34.723Z,110.20
2019-03-23T09:55:34.754Z,109.70
2019-03-23T09:56:34.736Z,107.20
2019-03-23T09:57:34.780Z,104.00
2019-03-23T09:58:34.729Z,111.20
2019-03-23T09:59:34.784Z,113.00
2019-03-23T10:00:34.659Z,104.70
2019-03-23T10:01:34.703Z,108.60
2019-03-23T10:02:34.720Z,105.20
2019-03-23T10:03:34.708Z,106.00
2019-03-23T10:04:34.609Z,111.30
2019-03-23T10:05:34.724Z,109.10
2019-03-23T10:06:34.589Z,104.60
2019-03-23T10:07:34.661Z,103.80
2019-03-23T10:08:34.574Z,99.30
2019-03-23T10:09:34.651Z,102.90
2019-03-23T10:10:34.547Z,101.40
2019-03-23T10:11:34.568Z,105.20
2019-03-23T10:12:34.573Z,104.20
2019-03-23T10:13:34.578Z,100.70
2019-03-23T10:14:34.506Z,104.70
2019-03-23T10:15:34.587Z,102.00
2019-03-23T10:16:34.475Z,102.40
2019-03-23T10:17:34.531Z,106.80
2019-03-23T10:18:34.473Z,98.10
2019-03-23T10:19:34.517Z,94.50
2019-03-23T10:20:34.439Z,99.00
2019-03-23T10:21:34.524Z,98.60
2019-03-23T10:22:34.416Z,97.90
2019-03-23T10:23:34.481Z,103.70
2019-03-23T10:24:34.541Z,99.10
2019-03-23T10:25:34.549Z,95.60
2019-03-23T10:26:34.474Z,91.90
2019-03-23T10:27:34.461Z,96.10
2019-03-23T10:28:34.365Z,94.30
2019-03-23T10:29:34.401Z,91.10
2019-03-23T10:30:34.329Z,83.70
2019-03-23T10:31:34.392Z,88.20
2019-03-23T10:32:34.307Z,90.20
2019-03-23T10:33:34.466Z,94.60
2019-03-23T10:34:34.275Z,90.70
2019-03-23T10:35:34.426Z,91.10
2019-03-23T10:36:34.272Z,92.50
2019-03-23T10:37:34.328Z,92.00
2019-03-23T10:38:34.275Z,91.90
2019-03-23T10:39:47.201Z,89.60
2019-03-23T10:40:35.217Z,92.20
2019-03-23T10:41:34.263Z,94.90
2019-03-23T10:42:34.245Z,91.70
2019-03-23T10:43:34.300Z,95.50
2019-03-23T10:44:34.160Z,87.60
2019-03-23T10:45:43.806Z,89.00
2019-03-23T10:46:35.135Z,91.90
2019-03-23T10:47:34.319Z,87.40
2019-03-23T10:48:34.168Z,88.40
2019-03-23T10:49:34.215Z,89.90
2019-03-23T10:50:34.097Z,87.60
2019-03-23T10:51:34.118Z,93.40
2019-03-23T10:52:34.103Z,89.90
2019-03-23T10:53:34.518Z,95.70
2019-03-23T10:54:34.336Z,87.20
2019-03-23T10:55:34.459Z,91.90
2019-03-23T10:56:34.037Z,99.40
2019-03-23T10:57:34.066Z,95.30
2019-03-23T10:58:34.008Z,96.10
2019-03-23T10:59:34.122Z,97.10
2019-03-23T11:00:34.005Z,92.70
2019-03-23T11:01:34.100Z,90.60
2019-03-23T11:02:34.058Z,93.00
2019-03-23T11:03:34.112Z,94.60
2019-03-23T11:04:34.016Z,91.20
2019-03-23T11:05:34.422Z,93.80
2019-03-23T11:06:34.134Z,94.50
2019-03-23T11:07:34.033Z,91.10
2019-03-23T11:08:33.949Z,93.80
2019-03-23T11:09:34.003Z,97.30
2019-03-23T11:10:41.587Z,86.00
2019-03-23T11:11:34.863Z,94.20
2019-03-23T11:12:33.977Z,93.70
2019-03-23T11:13:33.853Z,90.50
2019-03-23T11:14:33.913Z,90.90
2019-03-23T11:15:33.841Z,89.80
2019-03-23T11:16:33.889Z,94.30
2019-03-23T11:17:33.893Z,94.20
2019-03-23T11:18:33.899Z,92.60
2019-03-23T11:19:33.814Z,91.80
2019-03-23T11:20:33.815Z,91.00
2019-03-23T11:21:33.753Z,94.50
2019-03-23T11:22:33.913Z,93.40
2019-03-23T11:23:33.802Z,91.40
2019-03-23T11:24:33.869Z,97.60
2019-03-23T11:25:33.709Z,90.00
2019-03-23T11:26:33.752Z,91.10
2019-03-23T11:27:33.688Z,90.40
2019-03-23T11:28:33.766Z,96.30
2019-03-23T11:29:33.805Z,88.90
2019-03-23T11:31:34.775Z,90.50
2019-03-23T11:32:33.725Z,88.10
2019-03-23T11:33:33.630Z,83.80
2019-03-23T11:34:33.755Z,88.50
2019-03-23T11:35:33.721Z,88.50
2019-03-23T11:37:34.823Z,83.70
2019-03-23T11:38:33.632Z,85.00
2019-03-23T11:39:33.575Z,84.10
2019-03-23T11:40:33.676Z,87.30
2019-03-23T11:41:33.587Z,82.10
2019-03-23T11:42:33.675Z,81.90
2019-03-23T11:43:33.546Z,88.20
2019-03-23T11:44:33.569Z,85.70
2019-03-23T11:45:33.544Z,86.30
2019-03-23T11:46:33.588Z,87.20
2019-03-23T11:47:33.488Z,79.60
2019-03-23T11:48:33.658Z,76.00
2019-03-23T11:49:33.476Z,78.00
2019-03-23T11:50:33.581Z,80.40
2019-03-23T11:51:33.439Z,79.50
2019-03-23T11:52:33.553Z,79.00
2019-03-23T11:53:33.426Z,79.40
2019-03-23T11:54:33.476Z,74.80
2019-03-23T11:55:33.431Z,73.50
2019-03-23T11:56:33.511Z,79.40
2019-03-23T11:57:33.394Z,78.70
2019-03-23T11:58:33.478Z,77.80
2019-03-23T11:59:33.347Z,77.90
2019-03-23T12:00:33.407Z,78.90
2019-03-23T12:01:33.318Z,77.50
2019-03-23T12:02:33.401Z,77.10
2019-03-23T12:03:33.296Z,78.30
2019-03-23T12:04:33.403Z,75.60
2019-03-23T12:05:33.275Z,75.80
2019-03-23T12:06:33.364Z,81.30
2019-03-23T12:07:33.257Z,74.60
2019-03-23T12:08:33.340Z,74.70
2019-03-23T12:09:33.235Z,74.30
2019-03-23T12:10:33.244Z,79.20
2019-03-23T12:11:33.261Z,80.50
2019-03-23T12:12:33.262Z,80.40
2019-03-23T12:13:33.187Z,82.10
2019-03-23T12:14:33.263Z,75.00
2019-03-23T12:15:33.165Z,73.80
2019-03-23T12:16:33.432Z,81.80
2019-03-23T12:17:33.152Z,78.20
2019-03-23T12:18:33.249Z,79.50
2019-03-23T12:19:33.147Z,80.70
2019-03-23T12:20:33.214Z,76.80
2019-03-23T12:21:33.191Z,80.50
2019-03-23T12:22:33.146Z,75.60
2019-03-23T12:23:33.069Z,73.90
2019-03-23T12:24:33.139Z,79.20
2019-03-23T12:25:33.061Z,75.20
2019-03-23T12:26:35.143Z,75.00
2019-03-23T12:27:33.045Z,73.60
2019-03-23T12:29:34.128Z,77.60
2019-03-23T12:30:33.380Z,73.40
2019-03-23T12:31:33.008Z,74.70
2019-03-23T12:32:33.088Z,75.10
2019-03-23T12:33:33.006Z,75.70
2019-03-23T12:34:33.619Z,74.70
2019-03-23T12:35:32.942Z,75.80
2019-03-23T12:36:33.626Z,75.50
2019-03-23T12:37:32.961Z,74.30
2019-03-23T12:38:33.773Z,74.50
2019-03-23T12:39:32.916Z,69.80
2019-03-23T12:41:34.010Z,71.40
2019-03-23T12:43:34.007Z,70.80
2019-03-23T12:45:33.975Z,72.60
2019-03-23T12:47:33.991Z,73.10
2019-03-23T12:49:33.902Z,74.30
2019-03-23T12:51:33.919Z,73.20
2019-03-23T12:52:34.297Z,72.10
2019-03-23T12:53:32.737Z,71.60
2019-03-23T12:54:34.430Z,75.70
2019-03-23T12:55:32.703Z,73.40
2019-03-23T12:56:34.479Z,77.50
2019-03-23T12:57:32.687Z,73.30
2019-03-23T12:58:34.640Z,75.50
2019-03-23T12:59:32.683Z,72.60
2019-03-23T13:00:34.610Z,73.30
2019-03-23T13:01:32.635Z,78.40
2019-03-23T13:02:34.743Z,74.00
2019-03-23T13:03:32.643Z,71.80
2019-03-23T13:04:34.785Z,76.40
2019-03-23T13:05:32.607Z,74.70